Terminal Aerodrome Forecast
Issued by NWS

Home | Current Version | Previous Version | Text Only | Print | Product List | Glossary On
Versions: 1 2 3 4 5 6 7 8 9 10 11 12 13 14 15 16 17 18 19 20 21 22 23
899
FTUS41 KPBZ 291847 AAA
TAFBVI
TAF AMD
KBVI 291847Z 2919/3018 21005KT P6SM SCT025
     FM292200 00000KT P6SM BKN050
     FM300400 00000KT 6SM BR BKN250
     FM301100 10002KT 2SM BR OVC003
     FM301300 VRB03KT 4SM HZ BR OVC015
     FM301600 21004KT P6SM OVC050=

USA.gov is the U.S. government's official web portal to all federal, state and local government web resources and services.